Time;durP1;ratioP1;P1;durP2;ratioP2;P2;SDS_P1;SDS_P2;PMS_P1;PMS_P2;Temp;Humidity;BMP_temperature;BMP_pressure;BME280_temperature;BME280_humidity;BME280_pressure;Samples;Min_cycle;Max_cycle;Signal;HPM_P1;HPM_P2
2022/07/07 00:01:45;;;;;;;5.80;5.30;;;;;;;20.15;57.92;94803.88;5086354;28;20027;-77
2022/07/07 00:04:10;;;;;;;6.20;5.68;;;;;;;20.21;57.64;94811.03;5103488;28;20036;-77
2022/07/07 00:06:36;;;;;;;5.82;5.32;;;;;;;20.25;57.71;94804.38;5106414;28;20030;-77
2022/07/07 00:09:02;;;;;;;6.20;5.60;;;;;;;20.09;57.55;94800.97;5090220;28;20043;-77
2022/07/07 00:11:27;;;;;;;5.72;5.22;;;;;;;20.14;57.93;94812.78;5069340;28;20035;-77
2022/07/07 00:13:53;;;;;;;6.22;5.72;;;;;;;20.11;57.78;94810.50;5078443;28;20059;-77
2022/07/07 00:16:19;;;;;;;8.77;5.68;;;;;;;20.08;57.81;94809.88;5075568;28;20016;-77
2022/07/07 00:18:44;;;;;;;6.30;5.72;;;;;;;19.94;58.33;94802.81;5075449;28;20028;-77
2022/07/07 00:21:10;;;;;;;6.95;5.47;;;;;;;20.05;59.17;94815.53;5075743;28;20462;-77
2022/07/07 00:23:35;;;;;;;6.00;5.40;;;;;;;20.07;57.76;94807.44;5058756;28;20039;-77
2022/07/07 00:26:01;;;;;;;5.82;5.22;;;;;;;19.95;57.75;94795.75;5092377;28;20028;-77
2022/07/07 00:28:26;;;;;;;5.80;5.30;;;;;;;20.04;57.90;94813.91;5090444;28;20511;-77
2022/07/07 00:30:52;;;;;;;6.30;5.18;;;;;;;20.08;57.37;94823.06;5058837;28;20032;-77
2022/07/07 00:33:17;;;;;;;5.60;5.10;;;;;;;20.08;57.50;94817.78;5087518;28;20036;-77
2022/07/07 00:35:43;;;;;;;6.38;5.10;;;;;;;20.13;57.84;94821.69;5055499;28;20524;-77
2022/07/07 00:38:08;;;;;;;5.57;5.07;;;;;;;20.08;57.22;94824.88;5069329;28;20040;-77
2022/07/07 00:40:34;;;;;;;6.10;5.07;;;;;;;20.05;57.29;94819.97;5088783;28;20033;-77
2022/07/07 00:42:59;;;;;;;5.78;5.18;;;;;;;20.10;57.56;94822.88;5071770;28;20417;-77
2022/07/07 00:45:25;;;;;;;5.97;5.30;;;;;;;20.04;58.04;94818.38;5091328;28;20055;-77
2022/07/07 00:47:50;;;;;;;5.15;4.75;;;;;;;20.00;57.35;94811.81;5067291;28;20082;-77
2022/07/07 00:50:16;;;;;;;5.18;4.78;;;;;;;20.02;57.44;94820.34;5055039;28;20060;-77
2022/07/07 00:52:41;;;;;;;5.20;4.70;;;;;;;20.00;57.24;94811.81;5055028;28;20029;-77
2022/07/07 00:55:10;;;;;;;5.82;5.32;;;;;;;19.97;57.81;94818.25;5038525;28;20033;-77
2022/07/07 00:57:36;;;;;;;5.03;4.60;;;;;;;19.79;57.66;94796.78;5076059;28;20054;-77
2022/07/07 01:00:05;;;;;;;5.72;5.13;;;;;;;19.82;57.25;94814.84;5092593;28;20032;-77
2022/07/07 01:02:31;;;;;;;5.00;4.50;;;;;;;19.75;57.26;94806.88;5073978;28;20115;-77
2022/07/07 01:05:00;;;;;;;5.20;4.70;;;;;;;19.66;57.42;94799.22;5093331;28;20394;-77
2022/07/07 01:07:26;;;;;;;6.10;4.68;;;;;;;19.64;57.09;94799.41;5074528;28;20028;-77
2022/07/07 01:09:52;;;;;;;4.68;4.20;;;;;;;19.65;57.35;94801.03;5039461;28;20033;-77
2022/07/07 01:12:17;;;;;;;6.45;4.03;;;;;;;19.70;57.19;94803.16;5071355;28;20039;-77
2022/07/07 01:14:43;;;;;;;4.80;4.32;;;;;;;19.69;57.14;94801.50;5054403;28;20048;-77
2022/07/07 01:17:08;;;;;;;4.88;4.45;;;;;;;19.75;57.02;94820.06;5042182;28;20086;-77
2022/07/07 01:19:34;;;;;;;5.75;4.13;;;;;;;19.70;56.81;94822.41;5083020;28;20067;-77
2022/07/07 01:22:19;;;;;;;6.18;4.35;;;;;;;19.62;56.52;94820.66;5089650;28;20025;-77
2022/07/07 01:24:45;;;;;;;4.47;4.07;;;;;;;19.61;56.54;94823.44;5073966;28;20143;-77
2022/07/07 01:27:13;;;;;;;4.68;3.90;;;;;;;19.57;56.60;94823.00;5089965;28;20032;-77
2022/07/07 01:29:57;;;;;;;9.27;4.50;;;;;;;19.59;57.13;94822.84;5057960;28;20185;-77
2022/07/07 01:32:23;;;;;;;5.07;3.97;;;;;;;19.49;56.76;94823.09;5072445;28;20046;-77
2022/07/07 01:34:49;;;;;;;4.40;3.95;;;;;;;19.43;57.33;94831.72;5074379;28;20074;-77
2022/07/07 01:37:15;;;;;;;5.03;3.97;;;;;;;19.38;57.21;94820.91;5091086;28;20028;-77
2022/07/07 01:39:41;;;;;;;5.10;4.07;;;;;;;19.43;57.48;94822.00;5057622;28;20040;-77
2022/07/07 01:42:06;;;;;;;5.05;4.25;;;;;;;19.42;56.49;94824.84;5051127;28;20079;-77
2022/07/07 01:44:36;;;;;;;5.47;4.00;;;;;;;19.41;56.94;94823.19;5053829;28;20040;-77
2022/07/07 01:47:01;;;;;;;4.97;4.03;;;;;;;19.46;56.47;94825.28;5089956;28;20020;-77
2022/07/07 01:49:27;;;;;;;5.68;4.13;;;;;;;19.41;55.74;94821.38;5091002;28;20024;-77
2022/07/07 01:51:53;;;;;;;5.30;3.85;;;;;;;19.36;56.52;94809.72;5092071;28;20054;-77
2022/07/07 01:54:18;;;;;;;4.10;3.70;;;;;;;19.30;56.89;94815.72;5073844;28;20040;-77
2022/07/07 01:56:45;;;;;;;5.05;4.10;;;;;;;19.35;56.96;94819.47;5072524;28;20035;-77
2022/07/07 01:59:11;;;;;;;4.35;3.60;;;;;;;19.32;57.43;94805.84;5053973;28;20094;-77
2022/07/07 02:01:36;;;;;;;4.20;3.70;;;;;;;19.30;57.42;94826.25;5053866;28;20028;-77
2022/07/07 02:04:01;;;;;;;4.68;3.80;;;;;;;19.14;57.31;94816.72;5072678;28;20040;-77
2022/07/07 02:06:27;;;;;;;6.15;3.60;;;;;;;19.13;57.34;94826.41;5053639;28;20032;-77
2022/07/07 02:08:53;;;;;;;3.88;3.55;;;;;;;19.00;58.14;94820.97;5053690;28;20036;-77
2022/07/07 02:11:18;;;;;;;3.83;3.53;;;;;;;19.00;58.57;94820.97;5036940;28;20040;-77
2022/07/07 02:13:50;;;;;;;5.88;3.38;;;;;;;18.89;57.54;94813.50;5069816;28;20056;-77
2022/07/07 02:16:21;;;;;;;4.03;3.35;;;;;;;18.91;58.50;94827.28;5037219;28;20028;-77
2022/07/07 02:18:46;;;;;;;4.32;3.47;;;;;;;18.86;58.16;94813.84;5054928;28;20036;-77
2022/07/07 02:21:13;;;;;;;4.63;3.75;;;;;;;18.84;58.10;94832.44;5069983;28;20029;-77
2022/07/07 02:23:40;;;;;;;3.88;2.92;;;;;;;18.85;58.07;94825.38;5044206;28;20194;-77
2022/07/07 02:26:06;;;;;;;4.82;3.38;;;;;;;18.78;58.93;94829.69;5056812;28;20024;-77
2022/07/07 02:28:31;;;;;;;4.38;3.28;;;;;;;18.58;58.31;94822.25;5053529;28;20043;-77
2022/07/07 02:30:57;;;;;;;4.80;3.20;;;;;;;18.59;59.53;94831.78;5053319;28;20028;-77
2022/07/07 02:33:23;;;;;;;3.85;3.15;;;;;;;18.61;59.85;94834.22;5072155;28;20176;-77
2022/07/07 02:35:48;;;;;;;3.38;2.97;;;;;;;18.55;59.84;94833.13;5069875;28;20055;-77
2022/07/07 02:38:14;;;;;;;5.40;3.10;;;;;;;18.51;60.36;94831.84;5036205;28;20036;-76
2022/07/07 02:40:40;;;;;;;4.10;3.33;;;;;;;18.34;59.60;94825.06;5071060;28;20111;-77
2022/07/07 02:43:05;;;;;;;4.20;3.00;;;;;;;18.25;59.67;94819.88;5054042;28;20109;-77
2022/07/07 02:45:30;;;;;;;3.83;3.22;;;;;;;18.27;60.33;94831.00;5073124;28;20032;-77
2022/07/07 02:47:56;;;;;;;3.65;2.72;;;;;;;18.28;60.43;94835.28;5089568;28;20024;-76
2022/07/07 02:50:22;;;;;;;4.40;3.13;;;;;;;18.26;60.86;94828.56;5056345;28;20040;-77
2022/07/07 02:52:47;;;;;;;3.70;2.95;;;;;;;18.26;60.88;94825.94;5072872;28;20507;-77
2022/07/07 02:55:13;;;;;;;3.30;2.80;;;;;;;18.16;61.12;94828.78;5089650;28;20055;-77
2022/07/07 02:57:38;;;;;;;4.53;2.80;;;;;;;18.15;60.67;94835.03;5060954;28;20036;-77
2022/07/07 03:00:05;;;;;;;3.30;2.90;;;;;;;18.16;61.11;94838.47;5069659;28;20045;-76
2022/07/07 03:02:31;;;;;;;3.58;2.58;;;;;;;17.98;60.21;94836.13;5064551;28;20119;-77
2022/07/07 03:04:56;;;;;;;3.10;2.80;;;;;;;18.00;60.42;94824.44;5069681;28;20037;-77
2022/07/07 03:07:21;;;;;;;2.97;2.67;;;;;;;18.08;59.80;94842.81;5069752;28;20036;-77
2022/07/07 03:09:47;;;;;;;4.93;3.03;;;;;;;18.15;60.33;94840.28;5069714;28;20452;-77
2022/07/07 03:12:12;;;;;;;3.72;2.65;;;;;;;18.12;59.56;94837.19;5069741;28;20040;-77
2022/07/07 03:14:38;;;;;;;3.95;2.80;;;;;;;18.15;60.45;94848.19;5070343;28;20052;-77
2022/07/07 03:17:03;;;;;;;3.83;2.72;;;;;;;18.14;60.47;94846.56;5039767;28;20034;-77
2022/07/07 03:19:29;;;;;;;2.92;2.40;;;;;;;18.15;59.62;94842.91;5090309;28;20028;-77
2022/07/07 03:21:54;;;;;;;3.40;2.90;;;;;;;18.17;60.33;94845.38;5069390;28;20086;-76
2022/07/07 03:24:20;;;;;;;3.90;2.78;;;;;;;18.20;60.21;94851.09;5052624;28;20032;-76
2022/07/07 03:26:45;;;;;;;6.85;2.75;;;;;;;18.11;61.69;94840.78;5068495;28;20028;-77
2022/07/07 03:29:11;;;;;;;5.28;2.78;;;;;;;18.15;60.77;94848.19;5068461;28;20512;-76
2022/07/07 03:31:36;;;;;;;2.92;2.50;;;;;;;18.12;59.07;94843.25;5069323;28;20475;-76
2022/07/07 03:34:02;;;;;;;4.47;2.80;;;;;;;18.14;60.67;94846.56;5057458;28;20476;-77
2022/07/07 03:36:27;;;;;;;3.95;2.50;;;;;;;18.26;61.68;94854.84;5083286;28;20058;-77
2022/07/07 03:38:53;;;;;;;3.33;2.65;;;;;;;18.21;61.18;94836.97;5072621;28;20036;-77
2022/07/07 03:41:18;;;;;;;4.95;2.70;;;;;;;18.28;62.14;94848.44;5072241;28;20024;-76
2022/07/07 03:43:44;;;;;;;3.50;2.30;;;;;;;18.10;60.56;94832.09;5089467;28;20040;-76
2022/07/07 03:46:09;;;;;;;5.60;3.00;;;;;;;18.23;61.71;94850.75;5089344;28;20024;-77
2022/07/07 03:48:35;;;;;;;3.42;2.53;;;;;;;18.16;61.18;94839.28;5077330;28;20033;-77
2022/07/07 03:51:00;;;;;;;6.57;2.95;;;;;;;18.26;62.25;94847.78;5080319;28;20044;-77
2022/07/07 03:53:25;;;;;;;2.70;2.50;;;;;;;18.17;62.02;94833.06;5059435;28;20513;-77
2022/07/07 03:55:51;;;;;;;4.68;3.03;;;;;;;18.34;63.30;94846.91;5092785;28;20023;-77
2022/07/07 03:58:16;;;;;;;4.57;2.53;;;;;;;18.36;61.81;94854.63;5092886;28;20050;-76
2022/07/07 04:00:42;;;;;;;3.25;2.55;;;;;;;18.35;61.46;94845.91;5094214;28;20031;-77
2022/07/07 04:03:08;;;;;;;5.13;2.78;;;;;;;18.48;62.39;94853.25;5090802;28;20032;-77
2022/07/07 04:05:35;;;;;;;3.72;2.80;;;;;;;18.52;62.79;94849.25;5059549;28;20032;-76
2022/07/07 04:08:00;;;;;;;4.53;2.65;;;;;;;18.63;60.83;94845.41;5090697;28;20051;-76
2022/07/07 04:10:26;;;;;;;2.90;2.40;;;;;;;18.70;60.79;94852.44;5093338;28;20059;-77
2022/07/07 04:12:53;;;;;;;3.53;2.33;;;;;;;19.19;58.56;94845.94;5073572;28;20527;-77
2022/07/07 04:15:19;;;;;;;3.20;2.60;;;;;;;20.37;55.97;94844.28;5039735;28;20044;-77
2022/07/07 04:17:44;;;;;;;3.17;2.40;;;;;;;21.42;51.64;94843.63;5086268;28;20081;-78
2022/07/07 04:20:10;;;;;;;4.60;2.53;;;;;;;22.42;47.35;94839.66;5092559;28;20036;-78
2022/07/07 04:22:36;;;;;;;4.97;2.20;;;;;;;23.39;44.47;94840.19;5071564;28;20406;-78
2022/07/07 04:25:01;;;;;;;5.28;2.00;;;;;;;24.07;43.45;94822.09;5072445;28;20040;-78
2022/07/07 04:27:27;;;;;;;3.60;2.10;;;;;;;24.82;42.21;94844.59;5079037;28;20550;-77
2022/07/07 04:29:52;;;;;;;3.15;1.88;;;;;;;25.64;39.57;94842.72;5059005;28;20062;-78
2022/07/07 04:32:17;;;;;;;5.20;2.10;;;;;;;26.24;38.98;94834.09;5054601;28;20427;-78
2022/07/07 04:34:43;;;;;;;2.97;1.90;;;;;;;26.98;36.40;94842.75;5072301;28;20032;-78
2022/07/07 04:37:08;;;;;;;2.65;1.92;;;;;;;27.46;35.30;94841.00;5055542;28;20029;-78
2022/07/07 04:39:34;;;;;;;3.17;1.85;;;;;;;27.98;34.43;94836.59;5055515;28;20040;-78
2022/07/07 04:41:59;;;;;;;2.83;1.80;;;;;;;28.33;33.20;94832.22;5073234;28;20024;-78
2022/07/07 04:44:25;;;;;;;2.38;1.90;;;;;;;29.01;32.55;94833.22;5057468;28;20052;-78
2022/07/07 04:46:50;;;;;;;2.40;1.92;;;;;;;29.32;32.07;94837.25;5074535;28;20066;-78
2022/07/07 04:49:16;;;;;;;7.95;2.10;;;;;;;29.50;31.48;94846.88;5058367;28;20043;-78
2022/07/07 04:51:41;;;;;;;3.13;2.00;;;;;;;28.80;32.24;94840.88;5083654;28;20051;-78
2022/07/07 04:54:06;;;;;;;3.88;1.90;;;;;;;27.77;33.87;94850.50;5091016;28;20032;-78
2022/07/07 04:56:32;;;;;;;4.10;1.85;;;;;;;26.96;35.28;94840.31;5071704;28;20035;-78
2022/07/07 04:58:57;;;;;;;4.43;2.03;;;;;;;26.62;36.58;94852.50;5072937;28;20058;-78
2022/07/07 05:01:23;;;;;;;3.75;1.90;;;;;;;26.40;36.59;94841.47;5081490;28;20035;-78
2022/07/07 05:03:48;;;;;;;3.28;2.10;;;;;;;26.27;37.38;94837.16;5057894;28;20032;-78
2022/07/07 05:06:14;;;;;;;3.38;2.15;;;;;;;26.19;37.44;94844.63;5054881;28;20037;-78
2022/07/07 05:08:39;;;;;;;3.17;1.92;;;;;;;25.93;37.06;94837.75;5075859;28;20513;-78
2022/07/07 05:11:05;;;;;;;3.67;2.33;;;;;;;25.79;37.42;94845.03;5085047;28;20348;-78
2022/07/07 05:13:30;;;;;;;2.67;2.05;;;;;;;25.60;38.04;94842.38;5074629;28;20130;-78
2022/07/07 05:15:56;;;;;;;4.65;2.20;;;;;;;25.46;38.49;94840.03;5091658;28;20028;-78
2022/07/07 05:18:22;;;;;;;3.85;1.85;;;;;;;25.42;38.32;94837.00;5091871;28;20061;-78
2022/07/07 05:20:47;;;;;;;3.28;2.00;;;;;;;25.40;37.70;94839.88;5074970;28;20024;-78
2022/07/07 05:23:13;;;;;;;3.95;1.90;;;;;;;25.26;38.21;94827.72;5091430;28;20544;-78
2022/07/07 05:25:38;;;;;;;2.60;2.00;;;;;;;25.15;39.34;94823.94;5069046;28;20032;-78
2022/07/07 05:28:04;;;;;;;4.38;2.13;;;;;;;25.14;39.03;94843.56;5073654;28;20037;-78
2022/07/07 05:30:29;;;;;;;3.33;2.08;;;;;;;25.12;39.15;94834.16;5073844;28;20502;-78
2022/07/07 05:32:55;;;;;;;2.28;1.90;;;;;;;25.08;39.36;94835.63;5076110;28;20016;-78
2022/07/07 05:35:20;;;;;;;4.82;1.95;;;;;;;24.94;39.66;94822.44;5092384;28;20039;-78
2022/07/07 05:37:46;;;;;;;6.60;2.25;;;;;;;25.01;39.26;94842.84;5074754;28;20474;-78
2022/07/07 05:40:12;;;;;;;2.90;1.98;;;;;;;24.94;39.58;94837.56;5083538;28;20033;-78
2022/07/07 05:42:38;;;;;;;2.53;1.90;;;;;;;24.90;39.88;94836.38;5073587;28;20028;-78
2022/07/07 05:45:04;;;;;;;3.40;1.90;;;;;;;24.87;39.14;94834.94;5051462;28;20035;-80
2022/07/07 05:47:30;;;;;;;4.30;2.22;;;;;;;24.76;39.71;94830.31;5067857;28;20050;-79
2022/07/07 05:49:55;;;;;;;3.90;2.10;;;;;;;24.79;40.46;94840.53;5064173;28;20437;-79
2022/07/07 05:52:21;;;;;;;3.20;2.20;;;;;;;24.64;40.04;94832.06;5041565;28;20035;-79
2022/07/07 05:54:46;;;;;;;5.88;2.17;;;;;;;24.68;40.05;94835.91;5087554;28;20455;-79
2022/07/07 05:57:12;;;;;;;2.50;2.10;;;;;;;24.62;39.55;94834.09;5070462;28;20032;-79
2022/07/07 05:59:37;;;;;;;6.45;2.38;;;;;;;24.69;41.07;94830.38;5074563;28;20028;-79
2022/07/07 06:02:03;;;;;;;3.45;2.20;;;;;;;24.74;40.94;94843.03;5076009;28;20043;-79
2022/07/07 06:04:29;;;;;;;3.72;2.20;;;;;;;24.74;40.96;94843.03;5066194;28;20064;-79
2022/07/07 06:06:54;;;;;;;5.72;2.53;;;;;;;24.82;40.36;94852.56;5071497;28;20036;-79
2022/07/07 06:09:19;;;;;;;3.35;2.22;;;;;;;24.75;40.45;94842.81;5087711;28;20047;-79
2022/07/07 06:11:45;;;;;;;4.82;2.17;;;;;;;24.81;40.55;94846.44;5055116;28;20043;-78
2022/07/07 06:14:10;;;;;;;3.28;2.35;;;;;;;24.85;40.51;94850.31;5066052;28;20052;-79
2022/07/07 06:16:38;;;;;;;3.75;2.25;;;;;;;24.87;40.11;94856.19;5080054;28;20025;-79
2022/07/07 06:19:12;;;;;;;3.75;2.22;;;;;;;24.79;40.38;94851.16;5061619;28;20424;-79
2022/07/07 06:21:38;;;;;;;4.55;2.15;;;;;;;24.88;39.72;94851.72;5087458;28;20024;-78
2022/07/07 06:24:04;;;;;;;2.80;2.25;;;;;;;24.94;40.47;94854.31;5085871;28;20113;-78
2022/07/07 06:26:29;;;;;;;5.35;2.40;;;;;;;24.91;39.70;94849.44;5090101;28;20024;-79
2022/07/07 06:28:54;;;;;;;3.55;1.90;;;;;;;25.13;39.62;94872.97;5084531;28;20033;-78
2022/07/07 06:31:20;;;;;;;2.55;2.28;;;;;;;25.10;39.85;94860.97;5088964;28;20029;-79
2022/07/07 06:33:46;;;;;;;2.55;2.25;;;;;;;24.94;39.50;94864.16;5076633;28;20094;-79
2022/07/07 06:36:11;;;;;;;3.35;2.30;;;;;;;24.96;39.81;94862.91;5071791;28;20024;-78
2022/07/07 06:38:36;;;;;;;8.55;2.83;;;;;;;25.00;40.79;94862.47;5080338;28;20063;-78
2022/07/07 06:41:02;;;;;;;3.42;2.63;;;;;;;25.05;39.63;94860.00;5077735;28;20065;-79
2022/07/07 06:43:28;;;;;;;3.72;2.28;;;;;;;25.10;39.63;94858.31;5063664;28;20101;-79
2022/07/07 06:45:53;;;;;;;4.15;2.20;;;;;;;25.14;40.14;94856.88;5065369;28;20016;-79
2022/07/07 06:48:19;;;;;;;3.03;2.22;;;;;;;25.22;40.59;94855.78;5077031;28;20043;-79
2022/07/07 06:50:44;;;;;;;3.58;2.35;;;;;;;25.04;39.56;94858.34;5088961;28;20028;-79
2022/07/07 06:53:10;;;;;;;4.15;2.47;;;;;;;25.04;39.83;94855.69;5088380;28;20044;-79
2022/07/07 06:55:35;;;;;;;4.00;2.00;;;;;;;25.08;39.29;94872.84;5068455;28;20039;-79
2022/07/07 06:58:04;;;;;;;2.95;2.10;;;;;;;24.98;39.33;94852.84;5049478;28;20409;-78
2022/07/07 07:00:30;;;;;;;3.90;2.30;;;;;;;25.06;39.25;94870.38;5059883;28;20059;-79
2022/07/07 07:02:55;;;;;;;3.80;2.30;;;;;;;25.06;38.90;94866.91;5085709;28;20035;-78
2022/07/07 07:05:21;;;;;;;2.60;2.22;;;;;;;24.95;38.71;94863.91;5069395;28;20043;-79
2022/07/07 07:07:46;;;;;;;4.25;2.30;;;;;;;24.96;39.21;94867.38;5080046;28;20145;-79
2022/07/07 07:10:12;;;;;;;2.80;2.33;;;;;;;25.05;39.49;94866.13;5069234;28;20040;-79
2022/07/07 07:12:38;;;;;;;2.45;2.20;;;;;;;25.06;38.88;94869.56;5082419;28;20024;-79
2022/07/07 07:15:04;;;;;;;3.33;2.08;;;;;;;25.14;38.26;94861.34;5088264;28;20059;-79
2022/07/07 07:17:30;;;;;;;5.55;2.40;;;;;;;25.16;39.12;94851.34;5069071;28;20241;-79
2022/07/07 07:19:55;;;;;;;3.10;2.53;;;;;;;25.33;38.98;94863.06;5052301;28;20023;-79
2022/07/07 07:22:20;;;;;;;3.58;2.25;;;;;;;25.31;39.39;94853.66;5059288;28;20067;-79
2022/07/07 07:24:46;;;;;;;3.80;2.65;;;;;;;25.51;39.43;94866.78;5085821;28;20043;-79
2022/07/07 07:27:11;;;;;;;4.88;2.50;;;;;;;25.54;37.67;94858.38;5072171;28;20025;-79
2022/07/07 07:29:37;;;;;;;4.22;2.30;;;;;;;25.59;38.08;94854.03;5052491;28;20020;-79
2022/07/07 07:32:03;;;;;;;2.92;2.30;;;;;;;25.55;38.58;94852.84;5065538;28;20115;-79
2022/07/07 07:34:29;;;;;;;2.92;2.33;;;;;;;25.69;38.09;94860.69;5067474;28;20020;-79
2022/07/07 07:36:54;;;;;;;3.40;2.20;;;;;;;25.77;38.07;94855.91;5077214;28;20029;-79
2022/07/07 07:39:20;;;;;;;3.20;2.05;;;;;;;25.83;37.44;94862.22;5077786;28;20024;-79
2022/07/07 07:41:46;;;;;;;5.38;2.40;;;;;;;25.87;37.08;94851.94;5083858;28;20036;-79
2022/07/07 07:44:11;;;;;;;3.53;2.45;;;;;;;25.90;38.21;94859.47;5062272;28;20040;-79
2022/07/07 07:46:37;;;;;;;3.85;2.08;;;;;;;25.99;36.61;94856.31;5071256;28;20055;-79
2022/07/07 07:49:06;;;;;;;6.00;2.20;;;;;;;26.10;37.05;94856.59;5091339;28;20020;-80
2022/07/07 07:51:34;;;;;;;4.10;2.40;;;;;;;26.04;36.79;94858.31;5069335;28;20044;-80
2022/07/07 07:54:00;;;;;;;3.78;2.25;;;;;;;26.14;36.76;94853.28;5087602;28;20099;-79
2022/07/07 07:56:25;;;;;;;4.50;2.30;;;;;;;26.23;36.80;94845.81;5059294;28;20039;-78
2022/07/07 07:58:51;;;;;;;3.05;2.40;;;;;;;26.30;36.44;94858.00;5075959;28;20036;-79
2022/07/07 08:01:17;;;;;;;3.20;2.40;;;;;;;26.35;36.81;94859.16;5056138;28;20040;-79
2022/07/07 08:03:42;;;;;;;6.35;2.45;;;;;;;26.52;36.28;94862.88;5085222;28;20036;-79
2022/07/07 08:06:07;;;;;;;3.08;1.92;;;;;;;26.55;35.48;94856.28;5084380;28;20452;-79
2022/07/07 08:08:33;;;;;;;4.00;2.25;;;;;;;26.45;35.61;94852.28;5070271;28;20028;-80
2022/07/07 08:10:58;;;;;;;2.92;2.20;;;;;;;26.45;35.88;94860.25;5073758;28;20123;-79
2022/07/07 08:13:24;;;;;;;2.60;2.40;;;;;;;26.51;36.84;94867.38;5084399;28;20028;-79
2022/07/07 08:15:50;;;;;;;3.33;2.40;;;;;;;26.61;35.30;94853.53;5068581;28;20433;-80
2022/07/07 08:18:15;;;;;;;2.60;2.38;;;;;;;26.31;36.35;94850.81;5081563;28;20064;-80
2022/07/07 08:20:41;;;;;;;5.60;2.50;;;;;;;26.28;37.35;94838.78;5078964;28;20040;-80
2022/07/07 08:23:06;;;;;;;5.43;2.30;;;;;;;26.46;37.00;94845.91;5089000;28;20382;-79
2022/07/07 08:25:33;;;;;;;8.20;2.55;;;;;;;26.48;36.14;94843.03;5072145;28;20682;-79
2022/07/07 08:27:59;;;;;;;3.83;2.65;;;;;;;26.61;36.72;94855.41;5086307;28;20020;-79
2022/07/07 08:30:25;;;;;;;3.33;2.33;;;;;;;26.67;36.77;94852.63;5075648;28;20055;-79
2022/07/07 08:32:50;;;;;;;3.95;2.40;;;;;;;26.67;35.88;94847.31;5086318;28;20543;-79
2022/07/07 08:35:16;;;;;;;4.43;2.10;;;;;;;26.67;36.13;94846.50;5087545;28;20036;-79
2022/07/07 08:37:42;;;;;;;5.10;2.25;;;;;;;26.65;35.75;94846.72;5084539;28;20021;-78
2022/07/07 08:40:07;;;;;;;3.97;2.22;;;;;;;26.81;35.22;94858.59;5090415;28;20040;-79
2022/07/07 08:42:33;;;;;;;6.95;2.25;;;;;;;26.85;35.08;94858.94;5071444;28;20055;-79
2022/07/07 08:44:58;;;;;;;3.38;2.25;;;;;;;26.89;35.53;94854.78;5067569;28;20035;-79
2022/07/07 08:47:25;;;;;;;3.58;2.28;;;;;;;26.73;34.26;94851.72;5073794;28;20421;-79
2022/07/07 08:49:51;;;;;;;3.38;2.00;;;;;;;26.37;34.99;94849.13;5088861;28;20394;-78
2022/07/07 08:52:16;;;;;;;3.58;2.00;;;;;;;26.54;36.62;94855.47;5075053;28;20075;-79
2022/07/07 08:54:42;;;;;;;3.60;2.55;;;;;;;26.65;35.22;94845.91;5086743;28;20028;-79
2022/07/07 08:57:08;;;;;;;3.88;2.40;;;;;;;26.75;34.04;94854.16;5071738;28;20107;-79
2022/07/07 08:59:33;;;;;;;3.30;2.08;;;;;;;26.76;35.04;94857.66;5067642;28;20043;-79
2022/07/07 09:02:00;;;;;;;2.38;2.15;;;;;;;26.87;35.28;94849.69;5090559;28;20390;-79
2022/07/07 09:04:25;;;;;;;4.47;2.80;;;;;;;26.95;33.47;94852.03;5089141;28;20032;-78
2022/07/07 09:06:58;;;;;;;5.25;2.28;;;;;;;26.94;34.21;94854.91;5056821;28;20048;-79
2022/07/07 09:09:35;;;;;;;2.70;2.17;;;;;;;26.86;34.21;94845.41;5074602;28;20634;-79
2022/07/07 09:12:01;;;;;;;3.13;2.10;;;;;;;26.86;35.41;94849.94;5090706;28;20039;-79
2022/07/07 09:14:33;;;;;;;2.55;2.25;;;;;;;27.05;35.66;94853.31;5072411;28;20052;-79
2022/07/07 09:16:59;;;;;;;2.83;2.17;;;;;;;27.01;34.19;94833.50;5074005;28;20494;-78
2022/07/07 09:19:24;;;;;;;3.40;2.30;;;;;;;27.04;33.26;94846.38;5074330;28;20028;-79
2022/07/07 09:21:50;;;;;;;5.13;2.38;;;;;;;27.04;34.90;94841.84;5071491;28;20028;-79
2022/07/07 09:24:15;;;;;;;3.85;2.10;;;;;;;27.08;34.95;94843.03;5080357;28;20441;-79
2022/07/07 09:26:45;;;;;;;4.45;2.08;;;;;;;27.25;34.66;94837.06;5092012;28;20036;-78
2022/07/07 09:29:17;;;;;;;;;;;;;;;27.28;34.65;94844.59;5053693;28;20059;-79
2022/07/07 09:32:04;;;;;;;4.82;2.50;;;;;;;27.14;35.97;94850.09;5053662;28;20332;-79
2022/07/07 09:34:36;;;;;;;3.85;2.30;;;;;;;27.16;35.01;94849.88;5070873;28;20027;-79
2022/07/07 09:39:54;;;;;;;2.92;2.20;;;;;;;27.04;34.86;94847.19;5086115;28;20092;-79
2022/07/07 09:42:22;;;;;;;4.07;2.58;;;;;;;27.02;33.17;94833.25;5056718;28;20028;-79
2022/07/07 09:44:50;;;;;;;4.93;2.50;;;;;;;27.00;34.24;94832.69;5062353;28;20038;-79
2022/07/07 09:47:15;;;;;;;3.30;2.10;;;;;;;26.89;35.43;94836.16;5068606;28;20064;-79
2022/07/07 09:49:43;;;;;;;2.55;2.20;;;;;;;26.95;34.39;94837.91;5083146;28;20571;-79
2022/07/07 09:52:15;;;;;;;4.05;2.08;;;;;;;26.80;34.92;94829.50;5072389;28;20033;-79
2022/07/07 09:54:48;;;;;;;3.25;2.33;;;;;;;26.76;34.26;94818.50;5065286;28;20552;-79
2022/07/07 09:57:14;;;;;;;5.13;2.10;;;;;;;26.72;34.76;94826.13;5078107;28;20552;-79
2022/07/07 09:59:41;;;;;;;2.55;2.03;;;;;;;26.67;35.17;94826.00;5069058;28;20048;-79
2022/07/07 10:02:18;;;;;;;4.68;2.30;;;;;;;26.91;36.27;94823.38;5057259;28;20506;-79
2022/07/07 10:04:44;;;;;;;4.07;2.20;;;;;;;27.12;37.35;94833.50;5088680;28;20404;-79
2022/07/07 10:07:10;;;;;;;4.35;2.30;;;;;;;27.23;36.26;94831.94;5088335;28;20040;-79
2022/07/07 10:09:35;;;;;;;4.88;2.80;;;;;;;27.10;34.88;94827.59;5053530;28;20542;-79
2022/07/07 10:12:01;;;;;;;2.47;2.28;;;;;;;26.68;34.81;94808.16;5061242;28;20719;-79
2022/07/07 10:14:34;;;;;;;2.60;2.30;;;;;;;26.91;37.04;94823.38;5065381;28;20081;-79
2022/07/07 10:17:00;;;;;;;4.10;2.33;;;;;;;27.09;36.39;94819.84;5070413;28;20044;-79
2022/07/07 10:19:25;;;;;;;2.92;2.38;;;;;;;27.08;35.89;94811.03;5053579;28;20403;-79
2022/07/07 10:21:53;;;;;;;4.45;2.30;;;;;;;27.19;34.52;94812.09;5069030;28;20512;-79
2022/07/07 10:24:19;;;;;;;4.05;2.50;;;;;;;27.24;35.72;94825.56;5072801;28;20577;-79
2022/07/07 10:26:53;;;;;;;5.20;2.33;;;;;;;27.32;35.11;94821.75;5069674;28;20137;-79
2022/07/07 10:29:39;;;;;;;2.83;2.50;;;;;;;27.22;34.98;94802.84;5073176;28;20543;-79
2022/07/07 10:32:06;;;;;;;2.90;2.45;;;;;;;27.21;36.70;94803.88;5074830;28;20032;-79
2022/07/07 10:34:33;;;;;;;3.03;2.15;;;;;;;27.49;35.77;94812.00;5082418;28;20031;-79
2022/07/07 10:37:10;;;;;;;2.50;2.28;;;;;;;27.48;33.66;94810.38;5088708;28;20039;-79
2022/07/07 10:39:43;;;;;;;3.85;2.53;;;;;;;27.58;35.66;94813.28;5084974;28;20016;-79
2022/07/07 10:42:14;;;;;;;4.38;2.63;;;;;;;27.80;36.43;94807.38;5055703;28;20037;-79
2022/07/07 10:44:40;;;;;;;3.80;2.50;;;;;;;27.88;36.59;94806.19;5079206;28;20538;-79
2022/07/07 10:47:11;;;;;;;4.50;2.53;;;;;;;27.98;35.00;94799.22;5082424;28;20066;-79
2022/07/07 10:49:55;;;;;;;2.97;2.35;;;;;;;28.02;35.97;94784.34;5083463;28;20038;-79
2022/07/07 10:52:42;;;;;;;5.93;2.70;;;;;;;28.20;35.42;94786.06;5090768;28;20036;-79
2022/07/07 10:55:07;;;;;;;4.03;2.80;;;;;;;28.25;35.13;94790.66;5071963;28;20052;-80
2022/07/07 10:57:43;;;;;;;3.58;2.72;;;;;;;28.25;35.11;94788.00;5046045;28;20032;-79
2022/07/07 11:00:18;;;;;;;5.47;2.20;;;;;;;27.91;34.78;94776.38;5053648;28;20123;-79
2022/07/07 11:02:50;;;;;;;3.08;2.35;;;;;;;27.95;34.17;94797.03;5090224;28;20065;-79
2022/07/07 11:05:16;;;;;;;3.47;2.60;;;;;;;27.94;35.04;94783.91;5089338;28;20028;-79
2022/07/07 11:07:42;;;;;;;5.57;2.58;;;;;;;27.96;36.85;94787.97;5086708;28;20046;-80
2022/07/07 11:10:11;;;;;;;2.92;2.38;;;;;;;27.94;35.28;94787.38;5058882;28;20039;-79
2022/07/07 11:12:48;;;;;;;3.22;2.47;;;;;;;28.02;35.51;94783.53;5048872;28;20483;-79
2022/07/07 11:15:22;;;;;;;3.08;2.50;;;;;;;28.09;35.22;94772.75;5055338;28;20056;-79
2022/07/07 11:17:48;;;;;;;3.15;2.40;;;;;;;28.15;34.18;94777.13;5078628;28;20378;-79
2022/07/07 11:20:15;;;;;;;3.25;2.35;;;;;;;28.02;34.71;94786.22;5080312;28;20040;-79
2022/07/07 11:22:44;;;;;;;3.00;2.38;;;;;;;27.90;35.36;94767.56;5071729;28;20107;-79
2022/07/07 11:25:11;;;;;;;3.90;2.77;;;;;;;27.87;35.49;94776.03;5078682;28;20051;-79
2022/07/07 11:27:36;;;;;;;3.45;2.50;;;;;;;27.71;36.07;94756.19;5050721;28;20808;-79
2022/07/07 11:30:03;;;;;;;3.15;2.38;;;;;;;27.87;35.40;94759.22;5068309;28;20032;-79
2022/07/07 11:32:38;;;;;;;2.38;2.13;;;;;;;27.95;35.24;94751.66;5078743;28;20418;-79
2022/07/07 11:35:05;;;;;;;3.65;2.30;;;;;;;27.99;33.88;94739.44;5048759;28;20036;-79